createdAt,value
2019-05-05T00:03:19.293Z,8.13
2019-05-05T00:13:30.400Z,7.90
2019-05-05T00:23:35.156Z,9.40
2019-05-05T00:33:39.908Z,11.87
2019-05-05T00:43:45.184Z,11.60
2019-05-05T00:53:50.114Z,15.57
2019-05-05T01:03:55.014Z,15.67
2019-05-05T01:13:59.793Z,17.80
2019-05-05T01:24:05.114Z,17.37
2019-05-05T01:34:11.944Z,14.03
2019-05-05T01:44:16.729Z,16.27
2019-05-05T01:54:21.541Z,12.80
2019-05-05T02:04:26.421Z,10.80
2019-05-05T02:14:31.202Z,5.50
2019-05-05T02:24:35.958Z,5.50
2019-05-05T02:34:45.505Z,4.30
2019-05-05T02:44:54.410Z,4.43
2019-05-05T02:54:58.844Z,4.57
2019-05-05T03:05:04.609Z,4.33
2019-05-05T03:15:10.833Z,3.90
2019-05-05T03:25:15.604Z,4.27
2019-05-05T03:35:20.464Z,5.00
2019-05-05T03:45:34.164Z,6.20
2019-05-05T03:55:39.749Z,6.83
2019-05-05T04:05:46.091Z,9.10
2019-05-05T04:16:08.837Z,8.27
2019-05-05T04:26:14.797Z,8.97
2019-05-05T04:36:19.553Z,8.40
2019-05-05T04:46:24.628Z,13.03
2019-05-05T04:56:30.069Z,9.47
2019-05-05T05:06:36.562Z,10.17
2019-05-05T05:16:43.591Z,10.57
2019-05-05T05:26:47.824Z,11.43
2019-05-05T05:36:53.636Z,12.17
2019-05-05T05:47:05.199Z,13.10
2019-05-05T05:57:11.099Z,14.87
2019-05-05T06:07:15.876Z,13.90
2019-05-05T06:17:20.766Z,13.90
2019-05-05T06:27:25.529Z,15.10
2019-05-05T06:37:30.302Z,16.47
2019-05-05T06:47:36.943Z,18.33
2019-05-05T06:57:44.545Z,14.40
2019-05-05T07:07:49.371Z,16.33
2019-05-05T07:17:54.125Z,16.03
2019-05-05T07:27:58.913Z,15.70
2019-05-05T07:38:04.504Z,16.47
2019-05-05T07:48:09.552Z,16.07
2019-05-05T07:58:14.306Z,16.47
2019-05-05T08:08:20.676Z,19.67
2019-05-05T08:18:43.906Z,17.30
2019-05-05T08:28:56.464Z,12.23
2019-05-05T08:39:06.332Z,13.23
2019-05-05T08:49:11.102Z,12.57
2019-05-05T08:59:16.027Z,15.50
2019-05-05T09:09:20.983Z,13.97
2019-05-05T09:19:25.853Z,15.27
2019-05-05T09:29:46.561Z,15.03
2019-05-05T09:39:51.711Z,12.70
2019-05-05T09:49:57.091Z,13.47
2019-05-05T10:00:09.997Z,15.03
2019-05-05T10:10:15.464Z,17.43
2019-05-05T10:20:20.847Z,19.50
2019-05-05T10:30:25.870Z,14.77
2019-05-05T10:40:35.468Z,22.93
2019-05-05T10:50:40.463Z,19.30
2019-05-05T11:00:49.799Z,15.77
2019-05-05T11:10:54.552Z,11.87
2019-05-05T11:20:59.467Z,13.17
2019-05-05T11:31:04.528Z,9.60
2019-05-05T11:41:11.522Z,13.10
2019-05-05T11:51:16.320Z,14.80
2019-05-05T12:01:21.267Z,9.73
2019-05-05T12:11:26.117Z,11.50
2019-05-05T12:21:31.027Z,12.53
2019-05-05T12:31:37.356Z,10.93
2019-05-05T12:41:42.272Z,13.43
2019-05-05T12:51:47.329Z,9.67
2019-05-05T13:01:54.534Z,13.50
2019-05-05T13:11:58.636Z,13.33
2019-05-05T13:22:10.731Z,13.73
2019-05-05T13:32:15.573Z,15.23
2019-05-05T13:42:20.410Z,23.83
2019-05-05T13:52:25.169Z,16.73
2019-05-05T14:02:35.359Z,11.83
2019-05-05T14:12:40.185Z,11.47
2019-05-05T14:22:44.989Z,11.20
2019-05-05T14:32:49.834Z,11.00
2019-05-05T14:42:54.661Z,12.80
2019-05-05T14:52:59.489Z,7.83
2019-05-05T15:03:05.451Z,12.97
2019-05-05T15:13:10.824Z,11.90
2019-05-05T15:23:15.744Z,9.07
2019-05-05T15:33:20.603Z,11.07
2019-05-05T15:43:25.581Z,10.57
2019-05-05T15:53:31.984Z,8.03
2019-05-05T16:03:37.033Z,9.90
2019-05-05T16:13:43.947Z,8.00
2019-05-05T16:23:49.975Z,10.80
2019-05-05T16:33:54.981Z,9.43
2019-05-05T16:44:09.945Z,11.53
2019-05-05T16:54:21.683Z,10.00
2019-05-05T17:04:27.552Z,10.07
2019-05-05T17:14:34.815Z,10.10
2019-05-05T17:24:40.267Z,9.17
2019-05-05T17:34:45.733Z,8.33
2019-05-05T17:44:55.483Z,9.07
2019-05-05T17:55:04.658Z,12.03
2019-05-05T18:05:10.428Z,11.90
2019-05-05T18:15:34.170Z,13.83
2019-05-05T18:25:41.180Z,11.17
2019-05-05T18:35:48.563Z,9.20
2019-05-05T18:45:55.664Z,9.30
2019-05-05T18:56:01.299Z,11.77
2019-05-05T19:06:08.328Z,13.23
2019-05-05T19:16:14.208Z,15.80
2019-05-05T19:26:20.032Z,17.33
2019-05-05T19:36:34.141Z,17.77
2019-05-05T19:46:52.194Z,12.03
2019-05-05T19:56:57.712Z,8.73
2019-05-05T20:07:04.461Z,10.43
2019-05-05T20:17:28.149Z,12.03
2019-05-05T20:27:34.356Z,12.33
2019-05-05T20:37:44.369Z,11.50
2019-05-05T20:47:49.806Z,13.67
2019-05-05T20:57:55.280Z,17.33
2019-05-05T21:08:00.671Z,14.90
2019-05-05T21:18:06.056Z,13.20
2019-05-05T21:28:11.444Z,10.50
2019-05-05T21:38:16.523Z,15.60
2019-05-05T21:48:21.778Z,6.47
2019-05-05T21:58:28.711Z,6.87
2019-05-05T22:08:34.615Z,11.27
2019-05-05T22:18:40.128Z,5.70
2019-05-05T22:28:45.640Z,6.97
2019-05-05T22:38:51.007Z,5.33
2019-05-05T22:48:56.343Z,5.90
2019-05-05T22:59:01.310Z,8.50
2019-05-05T23:09:07.878Z,5.50
2019-05-05T23:19:12.959Z,4.37
2019-05-05T23:29:17.747Z,4.63
2019-05-05T23:39:24.311Z,4.37
2019-05-05T23:49:28.870Z,3.77
2019-05-05T23:59:33.666Z,3.60
